Hovedside
METAR-TAF:

METAR-TAF

Lufthavner :

Leknes, Norge

Leknes lufthavn

breddegrad: 68-09N, lengdegrad: 013-37E, høyde over havet: 2 m

Gjeldene værobservasjon

Denne rapporten ble laget for 37 minutter siden, klokken 06:50 UTC
Vind 8 kt fra Sør-sørøst
Temperatur 5°C
Luftfuktighet 87%
Trykk 996 hPa
Sikt 10 km eller mer
Få skyer i en høyde av 1000 ft
Spredte skyer i en høyde av 1200 ft
Brutte skyer i en høyde av 1500 ft

METAR: ENLK 210650Z 15008KT 9999 FEW010 SCT012 BKN015 05/03 Q0996

Tid: 09:27 (07:27 UTC)


TAF: fraværende

Værobservasjoner og værvarsel for over 4000 flyplasser (METAR- og TAF-rapporter).

Tilgjengelige stasjoner er representert av de røde og gule prikkene på kartet.

Hold musepekeren over prikken for å se navnet på stasjonen.

Klikk så for å se værobservasjoner og -varsler.

For å forandre kartet kan du klikke på den grønne knappen med svart kryss for å zoome inn, på den grønne knappen med strek for å zoome ut, eller på de grønne pilene for å se tilstøtende kart.


METAR-TAF: